sensor_id;sensor_type;location;lat;lon;timestamp;temperature;humidity
54938;DHT22;52756;52.826;6.214;2022-12-18T00:01:26;-0.80;76.70
54938;DHT22;52756;52.826;6.214;2022-12-18T00:03:53;-0.80;76.60
54938;DHT22;52756;52.826;6.214;2022-12-18T00:06:20;-0.80;76.20
54938;DHT22;52756;52.826;6.214;2022-12-18T00:08:46;-0.80;76.40
54938;DHT22;52756;52.826;6.214;2022-12-18T00:11:17;-0.80;76.30
54938;DHT22;52756;52.826;6.214;2022-12-18T00:13:44;-0.80;76.20
54938;DHT22;52756;52.826;6.214;2022-12-18T00:16:16;-0.80;75.80
54938;DHT22;52756;52.826;6.214;2022-12-18T00:18:43;-0.90;75.80
54938;DHT22;52756;52.826;6.214;2022-12-18T00:21:11;-0.80;75.70
54938;DHT22;52756;52.826;6.214;2022-12-18T00:23:38;-0.90;75.80
54938;DHT22;52756;52.826;6.214;2022-12-18T00:26:06;-0.90;75.90
54938;DHT22;52756;52.826;6.214;2022-12-18T00:28:32;-0.90;76.00
54938;DHT22;52756;52.826;6.214;2022-12-18T00:31:19;-1.00;75.60
54938;DHT22;52756;52.826;6.214;2022-12-18T00:33:45;-0.90;75.80
54938;DHT22;52756;52.826;6.214;2022-12-18T00:36:22;-1.00;75.70
54938;DHT22;52756;52.826;6.214;2022-12-18T00:38:49;-1.00;75.80
54938;DHT22;52756;52.826;6.214;2022-12-18T00:41:15;-1.00;75.90
54938;DHT22;52756;52.826;6.214;2022-12-18T00:44:00;-1.00;75.90
54938;DHT22;52756;52.826;6.214;2022-12-18T00:46:26;-1.00;75.90
54938;DHT22;52756;52.826;6.214;2022-12-18T00:48:51;-1.00;75.70
54938;DHT22;52756;52.826;6.214;2022-12-18T00:51:17;-1.00;75.40
54938;DHT22;52756;52.826;6.214;2022-12-18T00:53:43;-1.10;75.30
54938;DHT22;52756;52.826;6.214;2022-12-18T00:56:08;-1.10;75.30
54938;DHT22;52756;52.826;6.214;2022-12-18T00:58:34;-1.10;75.40
54938;DHT22;52756;52.826;6.214;2022-12-18T01:01:00;-1.10;75.50
54938;DHT22;52756;52.826;6.214;2022-12-18T01:03:25;-1.10;75.50
54938;DHT22;52756;52.826;6.214;2022-12-18T01:05:51;-1.10;75.40
54938;DHT22;52756;52.826;6.214;2022-12-18T01:08:17;-1.20;75.30
54938;DHT22;52756;52.826;6.214;2022-12-18T01:10:42;-1.20;75.20
54938;DHT22;52756;52.826;6.214;2022-12-18T01:13:08;-1.20;75.20
54938;DHT22;52756;52.826;6.214;2022-12-18T01:15:34;-1.10;75.40
54938;DHT22;52756;52.826;6.214;2022-12-18T01:17:59;-1.20;75.50
54938;DHT22;52756;52.826;6.214;2022-12-18T01:20:25;-1.20;75.60
54938;DHT22;52756;52.826;6.214;2022-12-18T01:22:51;-1.20;75.60
54938;DHT22;52756;52.826;6.214;2022-12-18T01:25:17;-1.20;75.50
54938;DHT22;52756;52.826;6.214;2022-12-18T01:27:42;-1.30;75.10
54938;DHT22;52756;52.826;6.214;2022-12-18T01:30:08;-1.30;75.30
54938;DHT22;52756;52.826;6.214;2022-12-18T01:32:34;-1.30;75.40
54938;DHT22;52756;52.826;6.214;2022-12-18T01:35:00;-1.30;75.60
54938;DHT22;52756;52.826;6.214;2022-12-18T01:37:25;-1.30;75.80
54938;DHT22;52756;52.826;6.214;2022-12-18T01:39:52;-1.30;75.50
54938;DHT22;52756;52.826;6.214;2022-12-18T01:42:20;-1.30;75.40
54938;DHT22;52756;52.826;6.214;2022-12-18T01:49:53;-1.40;75.20
54938;DHT22;52756;52.826;6.214;2022-12-18T01:52:20;-1.40;75.10
54938;DHT22;52756;52.826;6.214;2022-12-18T01:54:47;-1.50;75.10
54938;DHT22;52756;52.826;6.214;2022-12-18T01:57:14;-1.50;75.30
54938;DHT22;52756;52.826;6.214;2022-12-18T01:59:42;-1.50;75.30
54938;DHT22;52756;52.826;6.214;2022-12-18T02:02:09;-1.50;75.30
54938;DHT22;52756;52.826;6.214;2022-12-18T02:04:35;-1.60;75.10
54938;DHT22;52756;52.826;6.214;2022-12-18T02:07:10;-1.60;75.00
54938;DHT22;52756;52.826;6.214;2022-12-18T02:10:25;-1.70;75.00
54938;DHT22;52756;52.826;6.214;2022-12-18T02:18:38;-1.90;75.30
54938;DHT22;52756;52.826;6.214;2022-12-18T02:24:35;-1.90;75.60
54938;DHT22;52756;52.826;6.214;2022-12-18T02:27:05;-1.90;75.50
54938;DHT22;52756;52.826;6.214;2022-12-18T02:29:36;-2.00;75.30
54938;DHT22;52756;52.826;6.214;2022-12-18T02:32:08;-2.00;75.40
54938;DHT22;52756;52.826;6.214;2022-12-18T02:34:38;-2.00;75.40
54938;DHT22;52756;52.826;6.214;2022-12-18T02:37:07;-2.00;75.60
54938;DHT22;52756;52.826;6.214;2022-12-18T02:39:37;-2.00;76.10
54938;DHT22;52756;52.826;6.214;2022-12-18T02:42:04;-2.00;75.80
54938;DHT22;52756;52.826;6.214;2022-12-18T02:44:34;-1.90;76.00
54938;DHT22;52756;52.826;6.214;2022-12-18T02:47:01;-1.90;76.10
54938;DHT22;52756;52.826;6.214;2022-12-18T02:56:58;-1.80;75.90
54938;DHT22;52756;52.826;6.214;2022-12-18T02:59:38;-1.80;75.90
54938;DHT22;52756;52.826;6.214;2022-12-18T03:02:24;-1.80;75.90
54938;DHT22;52756;52.826;6.214;2022-12-18T03:05:12;-1.80;75.80
54938;DHT22;52756;52.826;6.214;2022-12-18T03:07:46;-1.80;75.50
54938;DHT22;52756;52.826;6.214;2022-12-18T03:10:15;-1.80;75.10
54938;DHT22;52756;52.826;6.214;2022-12-18T03:12:47;-1.80;75.00
54938;DHT22;52756;52.826;6.214;2022-12-18T03:15:25;-1.90;74.90
54938;DHT22;52756;52.826;6.214;2022-12-18T03:17:56;-1.90;74.70
54938;DHT22;52756;52.826;6.214;2022-12-18T03:20:26;-1.90;74.70
54938;DHT22;52756;52.826;6.214;2022-12-18T03:22:59;-1.90;74.70
54938;DHT22;52756;52.826;6.214;2022-12-18T03:25:28;-1.90;74.80
54938;DHT22;52756;52.826;6.214;2022-12-18T03:27:58;-1.80;74.80
54938;DHT22;52756;52.826;6.214;2022-12-18T03:30:26;-1.80;74.80
54938;DHT22;52756;52.826;6.214;2022-12-18T03:32:58;-1.80;74.70
54938;DHT22;52756;52.826;6.214;2022-12-18T03:35:29;-1.90;74.10
54938;DHT22;52756;52.826;6.214;2022-12-18T03:37:56;-1.90;73.60
54938;DHT22;52756;52.826;6.214;2022-12-18T03:40:29;-2.00;73.20
54938;DHT22;52756;52.826;6.214;2022-12-18T03:43:08;-2.00;73.20
54938;DHT22;52756;52.826;6.214;2022-12-18T03:45:40;-2.10;73.00
54938;DHT22;52756;52.826;6.214;2022-12-18T03:48:22;-2.10;73.20
54938;DHT22;52756;52.826;6.214;2022-12-18T03:50:57;-2.10;73.30
54938;DHT22;52756;52.826;6.214;2022-12-18T03:53:36;-2.10;73.30
54938;DHT22;52756;52.826;6.214;2022-12-18T03:56:04;-2.10;73.40
54938;DHT22;52756;52.826;6.214;2022-12-18T03:58:33;-2.10;73.70
54938;DHT22;52756;52.826;6.214;2022-12-18T04:01:02;-2.10;73.80
54938;DHT22;52756;52.826;6.214;2022-12-18T04:03:30;-2.10;73.80
54938;DHT22;52756;52.826;6.214;2022-12-18T04:05:59;-2.10;73.50
54938;DHT22;52756;52.826;6.214;2022-12-18T04:08:26;-2.10;73.40
54938;DHT22;52756;52.826;6.214;2022-12-18T04:10:52;-2.20;73.00
54938;DHT22;52756;52.826;6.214;2022-12-18T04:13:28;-2.20;72.60
54938;DHT22;52756;52.826;6.214;2022-12-18T04:15:54;-2.20;72.60
54938;DHT22;52756;52.826;6.214;2022-12-18T04:18:20;-2.30;72.50
54938;DHT22;52756;52.826;6.214;2022-12-18T04:20:45;-2.30;72.70
54938;DHT22;52756;52.826;6.214;2022-12-18T04:23:11;-2.30;73.10
54938;DHT22;52756;52.826;6.214;2022-12-18T04:25:37;-2.30;73.40
54938;DHT22;52756;52.826;6.214;2022-12-18T04:28:03;-2.20;73.60
54938;DHT22;52756;52.826;6.214;2022-12-18T04:30:28;-2.20;73.70
54938;DHT22;52756;52.826;6.214;2022-12-18T04:32:54;-2.20;73.60
54938;DHT22;52756;52.826;6.214;2022-12-18T04:35:20;-2.20;73.70
54938;DHT22;52756;52.826;6.214;2022-12-18T04:37:45;-2.20;73.70
54938;DHT22;52756;52.826;6.214;2022-12-18T04:40:11;-2.20;73.50
54938;DHT22;52756;52.826;6.214;2022-12-18T04:42:39;-2.20;73.50
54938;DHT22;52756;52.826;6.214;2022-12-18T04:45:05;-2.20;73.50
54938;DHT22;52756;52.826;6.214;2022-12-18T04:47:31;-2.20;73.30
54938;DHT22;52756;52.826;6.214;2022-12-18T04:49:56;-2.20;73.10
54938;DHT22;52756;52.826;6.214;2022-12-18T04:52:22;-1.70;72.90
54938;DHT22;52756;52.826;6.214;2022-12-18T04:54:48;-2.30;72.40
54938;DHT22;52756;52.826;6.214;2022-12-18T04:57:13;-2.30;72.50
54938;DHT22;52756;52.826;6.214;2022-12-18T04:59:39;-2.40;72.50
54938;DHT22;52756;52.826;6.214;2022-12-18T05:02:05;-1.90;73.10
54938;DHT22;52756;52.826;6.214;2022-12-18T05:04:31;-2.40;73.00
54938;DHT22;52756;52.826;6.214;2022-12-18T05:06:56;-2.40;73.00
54938;DHT22;52756;52.826;6.214;2022-12-18T05:09:23;-2.30;72.80
54938;DHT22;52756;52.826;6.214;2022-12-18T05:11:48;-2.40;72.60
54938;DHT22;52756;52.826;6.214;2022-12-18T05:14:14;-2.40;72.40
54938;DHT22;52756;52.826;6.214;2022-12-18T05:16:40;-2.40;72.20
54938;DHT22;52756;52.826;6.214;2022-12-18T05:19:05;-2.40;71.80
54938;DHT22;52756;52.826;6.214;2022-12-18T05:21:31;-2.50;71.90
54938;DHT22;52756;52.826;6.214;2022-12-18T05:23:57;-2.50;72.10
54938;DHT22;52756;52.826;6.214;2022-12-18T05:26:22;-2.50;72.10
54938;DHT22;52756;52.826;6.214;2022-12-18T05:28:48;-2.50;72.20
54938;DHT22;52756;52.826;6.214;2022-12-18T05:31:14;-2.50;72.00
54938;DHT22;52756;52.826;6.214;2022-12-18T05:33:40;-2.50;71.90
54938;DHT22;52756;52.826;6.214;2022-12-18T05:36:07;-2.50;71.70
54938;DHT22;52756;52.826;6.214;2022-12-18T05:38:35;-2.50;71.80
54938;DHT22;52756;52.826;6.214;2022-12-18T05:41:02;-2.60;71.90
54938;DHT22;52756;52.826;6.214;2022-12-18T05:43:28;-2.60;72.10
54938;DHT22;52756;52.826;6.214;2022-12-18T05:45:54;-2.60;72.70
54938;DHT22;52756;52.826;6.214;2022-12-18T05:48:21;-2.60;72.30
54938;DHT22;52756;52.826;6.214;2022-12-18T05:50:48;-2.50;72.40
54938;DHT22;52756;52.826;6.214;2022-12-18T05:53:15;-2.50;72.50
54938;DHT22;52756;52.826;6.214;2022-12-18T05:55:42;-2.50;72.60
54938;DHT22;52756;52.826;6.214;2022-12-18T05:58:09;-2.50;72.60
54938;DHT22;52756;52.826;6.214;2022-12-18T06:00:37;-2.50;72.20
54938;DHT22;52756;52.826;6.214;2022-12-18T06:03:06;-2.50;72.00
54938;DHT22;52756;52.826;6.214;2022-12-18T06:05:37;-2.60;72.00
54938;DHT22;52756;52.826;6.214;2022-12-18T06:08:03;-2.60;72.00
54938;DHT22;52756;52.826;6.214;2022-12-18T06:10:29;-2.60;71.80
54938;DHT22;52756;52.826;6.214;2022-12-18T06:12:54;-2.60;71.60
54938;DHT22;52756;52.826;6.214;2022-12-18T06:15:20;-2.70;71.30
54938;DHT22;52756;52.826;6.214;2022-12-18T06:17:45;-2.70;71.00
54938;DHT22;52756;52.826;6.214;2022-12-18T06:20:11;-2.70;71.00
54938;DHT22;52756;52.826;6.214;2022-12-18T06:22:37;-2.80;70.80
54938;DHT22;52756;52.826;6.214;2022-12-18T06:25:03;-2.80;70.90
54938;DHT22;52756;52.826;6.214;2022-12-18T06:27:28;-2.80;71.00
54938;DHT22;52756;52.826;6.214;2022-12-18T06:29:54;-2.90;71.00
54938;DHT22;52756;52.826;6.214;2022-12-18T06:32:20;-2.90;70.90
54938;DHT22;52756;52.826;6.214;2022-12-18T06:34:45;-2.90;70.50
54938;DHT22;52756;52.826;6.214;2022-12-18T06:37:11;-3.00;70.20
54938;DHT22;52756;52.826;6.214;2022-12-18T06:39:37;-3.10;69.70
54938;DHT22;52756;52.826;6.214;2022-12-18T06:42:03;-3.20;69.60
54938;DHT22;52756;52.826;6.214;2022-12-18T06:44:28;-3.20;69.70
54938;DHT22;52756;52.826;6.214;2022-12-18T06:46:54;-3.30;69.80
54938;DHT22;52756;52.826;6.214;2022-12-18T06:49:20;-3.40;69.80
54938;DHT22;52756;52.826;6.214;2022-12-18T06:51:46;-3.40;69.90
54938;DHT22;52756;52.826;6.214;2022-12-18T06:54:12;-3.50;69.90
54938;DHT22;52756;52.826;6.214;2022-12-18T06:56:38;-3.60;70.00
54938;DHT22;52756;52.826;6.214;2022-12-18T06:59:04;-3.60;70.30
54938;DHT22;52756;52.826;6.214;2022-12-18T07:01:29;-3.70;70.30
54938;DHT22;52756;52.826;6.214;2022-12-18T07:03:56;-3.70;70.30
54938;DHT22;52756;52.826;6.214;2022-12-18T07:06:24;-3.70;70.30
54938;DHT22;52756;52.826;6.214;2022-12-18T07:08:51;-3.90;70.30
54938;DHT22;52756;52.826;6.214;2022-12-18T07:11:18;-3.90;70.40
54938;DHT22;52756;52.826;6.214;2022-12-18T07:13:44;-4.00;70.50
54938;DHT22;52756;52.826;6.214;2022-12-18T07:16:15;-4.00;70.70
54938;DHT22;52756;52.826;6.214;2022-12-18T07:18:41;-4.10;70.70
54938;DHT22;52756;52.826;6.214;2022-12-18T07:21:12;-4.10;70.90
54938;DHT22;52756;52.826;6.214;2022-12-18T07:23:38;-4.10;71.00
54938;DHT22;52756;52.826;6.214;2022-12-18T07:26:09;-4.20;71.10
54938;DHT22;52756;52.826;6.214;2022-12-18T07:28:36;-4.20;71.20
54938;DHT22;52756;52.826;6.214;2022-12-18T07:31:13;-4.30;71.30
54938;DHT22;52756;52.826;6.214;2022-12-18T07:33:40;-4.30;71.50
54938;DHT22;52756;52.826;6.214;2022-12-18T07:36:07;-4.30;71.60
54938;DHT22;52756;52.826;6.214;2022-12-18T07:38:34;-4.30;71.80
54938;DHT22;52756;52.826;6.214;2022-12-18T07:41:13;-4.40;71.80
54938;DHT22;52756;52.826;6.214;2022-12-18T07:43:40;-4.40;71.90
54938;DHT22;52756;52.826;6.214;2022-12-18T07:46:07;-4.40;71.90
54938;DHT22;52756;52.826;6.214;2022-12-18T07:48:33;-4.40;72.30
54938;DHT22;52756;52.826;6.214;2022-12-18T07:51:00;-4.50;72.20
54938;DHT22;52756;52.826;6.214;2022-12-18T07:53:27;-4.40;72.30
54938;DHT22;52756;52.826;6.214;2022-12-18T07:55:57;-4.50;72.40
54938;DHT22;52756;52.826;6.214;2022-12-18T07:58:22;-4.50;72.60
54938;DHT22;52756;52.826;6.214;2022-12-18T08:00:48;-4.50;72.70
54938;DHT22;52756;52.826;6.214;2022-12-18T08:03:14;-4.50;72.70
54938;DHT22;52756;52.826;6.214;2022-12-18T08:05:39;-4.50;72.80
54938;DHT22;52756;52.826;6.214;2022-12-18T08:08:05;-4.50;73.00
54938;DHT22;52756;52.826;6.214;2022-12-18T08:10:31;-4.50;73.00
54938;DHT22;52756;52.826;6.214;2022-12-18T08:12:56;-4.50;73.10
54938;DHT22;52756;52.826;6.214;2022-12-18T08:15:22;-4.50;73.30
54938;DHT22;52756;52.826;6.214;2022-12-18T08:17:48;-4.50;73.40
54938;DHT22;52756;52.826;6.214;2022-12-18T08:20:13;-4.40;73.50
54938;DHT22;52756;52.826;6.214;2022-12-18T08:22:43;-4.40;73.50
54938;DHT22;52756;52.826;6.214;2022-12-18T08:25:10;-4.40;73.60
54938;DHT22;52756;52.826;6.214;2022-12-18T08:27:36;-4.40;73.60
54938;DHT22;52756;52.826;6.214;2022-12-18T08:30:03;-4.30;73.70
54938;DHT22;52756;52.826;6.214;2022-12-18T08:32:29;-4.30;73.70
54938;DHT22;52756;52.826;6.214;2022-12-18T08:34:54;-4.30;73.70
54938;DHT22;52756;52.826;6.214;2022-12-18T08:37:20;-4.30;73.80
54938;DHT22;52756;52.826;6.214;2022-12-18T08:39:46;-4.30;73.80
54938;DHT22;52756;52.826;6.214;2022-12-18T08:42:11;-4.20;73.90
54938;DHT22;52756;52.826;6.214;2022-12-18T08:44:55;-4.20;74.00
54938;DHT22;52756;52.826;6.214;2022-12-18T08:47:21;-4.20;74.40
54938;DHT22;52756;52.826;6.214;2022-12-18T08:49:47;-4.20;74.10
54938;DHT22;52756;52.826;6.214;2022-12-18T08:52:12;-4.10;74.20
54938;DHT22;52756;52.826;6.214;2022-12-18T08:54:38;-4.10;74.20
54938;DHT22;52756;52.826;6.214;2022-12-18T08:57:04;-4.00;74.70
54938;DHT22;52756;52.826;6.214;2022-12-18T08:59:29;-4.00;74.40
54938;DHT22;52756;52.826;6.214;2022-12-18T09:01:55;-4.00;74.40
54938;DHT22;52756;52.826;6.214;2022-12-18T09:04:21;-3.90;74.50
54938;DHT22;52756;52.826;6.214;2022-12-18T09:06:47;-3.90;74.50
54938;DHT22;52756;52.826;6.214;2022-12-18T09:09:12;-3.80;74.50
54938;DHT22;52756;52.826;6.214;2022-12-18T09:11:38;-3.80;74.50
54938;DHT22;52756;52.826;6.214;2022-12-18T09:14:04;-3.80;74.50
54938;DHT22;52756;52.826;6.214;2022-12-18T09:16:31;-3.70;74.60
54938;DHT22;52756;52.826;6.214;2022-12-18T09:18:57;-3.70;74.60
54938;DHT22;52756;52.826;6.214;2022-12-18T09:21:29;-3.60;74.80
54938;DHT22;52756;52.826;6.214;2022-12-18T09:23:55;-3.60;74.80
54938;DHT22;52756;52.826;6.214;2022-12-18T09:26:23;-3.50;74.80
54938;DHT22;52756;52.826;6.214;2022-12-18T09:28:49;-3.50;74.90
54938;DHT22;52756;52.826;6.214;2022-12-18T09:31:17;-3.50;74.90
54938;DHT22;52756;52.826;6.214;2022-12-18T09:33:43;-3.40;74.90
54938;DHT22;52756;52.826;6.214;2022-12-18T09:36:12;-3.40;74.90
54938;DHT22;52756;52.826;6.214;2022-12-18T09:38:38;-3.30;75.00
54938;DHT22;52756;52.826;6.214;2022-12-18T09:41:41;-3.30;75.00
54938;DHT22;52756;52.826;6.214;2022-12-18T09:46:51;-3.20;75.20
54938;DHT22;52756;52.826;6.214;2022-12-18T09:49:21;-3.10;75.30
54938;DHT22;52756;52.826;6.214;2022-12-18T09:51:55;-3.10;75.20
54938;DHT22;52756;52.826;6.214;2022-12-18T09:54:40;-3.00;75.30
54938;DHT22;52756;52.826;6.214;2022-12-18T09:57:06;-2.90;75.30
54938;DHT22;52756;52.826;6.214;2022-12-18T09:59:37;-2.90;75.30
54938;DHT22;52756;52.826;6.214;2022-12-18T10:02:31;-2.80;75.30
54938;DHT22;52756;52.826;6.214;2022-12-18T10:10:52;-2.60;75.00
54938;DHT22;52756;52.826;6.214;2022-12-18T10:13:41;-2.50;74.50
54938;DHT22;52756;52.826;6.214;2022-12-18T10:16:19;-2.40;74.70
54938;DHT22;52756;52.826;6.214;2022-12-18T10:19:06;-2.40;74.40
54938;DHT22;52756;52.826;6.214;2022-12-18T10:24:46;-2.20;73.90
54938;DHT22;52756;52.826;6.214;2022-12-18T10:27:18;-2.10;73.40
54938;DHT22;52756;52.826;6.214;2022-12-18T10:29:47;-2.10;73.20
54938;DHT22;52756;52.826;6.214;2022-12-18T10:32:26;-2.10;73.00
54938;DHT22;52756;52.826;6.214;2022-12-18T10:34:55;-2.00;72.80
54938;DHT22;52756;52.826;6.214;2022-12-18T10:37:25;-2.00;72.60
54938;DHT22;52756;52.826;6.214;2022-12-18T10:40:15;-2.00;72.70
54938;DHT22;52756;52.826;6.214;2022-12-18T10:42:41;-1.90;72.60
54938;DHT22;52756;52.826;6.214;2022-12-18T10:45:15;-1.90;72.40
54938;DHT22;52756;52.826;6.214;2022-12-18T10:47:48;-1.80;72.40
54938;DHT22;52756;52.826;6.214;2022-12-18T10:50:34;-1.80;72.40
54938;DHT22;52756;52.826;6.214;2022-12-18T10:53:03;-1.60;72.30
54938;DHT22;52756;52.826;6.214;2022-12-18T10:55:33;-1.70;72.10
54938;DHT22;52756;52.826;6.214;2022-12-18T10:58:26;-1.70;72.10
54938;DHT22;52756;52.826;6.214;2022-12-18T11:01:16;-1.70;71.80
54938;DHT22;52756;52.826;6.214;2022-12-18T11:03:59;-1.60;71.70
54938;DHT22;52756;52.826;6.214;2022-12-18T11:06:25;-1.50;71.70
54938;DHT22;52756;52.826;6.214;2022-12-18T11:09:05;-1.50;71.40
54938;DHT22;52756;52.826;6.214;2022-12-18T11:11:32;-1.40;71.10
54938;DHT22;52756;52.826;6.214;2022-12-18T11:14:06;-1.40;71.00
54938;DHT22;52756;52.826;6.214;2022-12-18T11:16:44;-1.30;70.90
54938;DHT22;52756;52.826;6.214;2022-12-18T11:21:45;-1.20;70.60
54938;DHT22;52756;52.826;6.214;2022-12-18T11:24:24;-1.20;70.50
54938;DHT22;52756;52.826;6.214;2022-12-18T11:26:51;-1.20;70.90
54938;DHT22;52756;52.826;6.214;2022-12-18T11:29:23;-1.10;70.40
54938;DHT22;52756;52.826;6.214;2022-12-18T11:31:49;-1.10;70.20
54938;DHT22;52756;52.826;6.214;2022-12-18T11:34:26;-1.00;70.20
54938;DHT22;52756;52.826;6.214;2022-12-18T11:36:54;-1.00;69.90
54938;DHT22;52756;52.826;6.214;2022-12-18T11:42:16;-0.90;69.40
54938;DHT22;52756;52.826;6.214;2022-12-18T11:44:54;-0.90;69.40
54938;DHT22;52756;52.826;6.214;2022-12-18T11:52:52;-0.80;68.70
54938;DHT22;52756;52.826;6.214;2022-12-18T11:55:41;-0.70;68.50
54938;DHT22;52756;52.826;6.214;2022-12-18T11:58:15;-0.70;68.50
54938;DHT22;52756;52.826;6.214;2022-12-18T12:06:30;-0.60;68.30
54938;DHT22;52756;52.826;6.214;2022-12-18T12:09:46;-0.60;68.20
54938;DHT22;52756;52.826;6.214;2022-12-18T12:12:10;-0.60;68.00
54938;DHT22;52756;52.826;6.214;2022-12-18T12:15:03;-0.50;67.70
54938;DHT22;52756;52.826;6.214;2022-12-18T12:20:23;-0.50;67.60
54938;DHT22;52756;52.826;6.214;2022-12-18T12:33:44;-0.50;67.50
54938;DHT22;52756;52.826;6.214;2022-12-18T12:39:00;-0.40;67.70
54938;DHT22;52756;52.826;6.214;2022-12-18T12:41:31;-0.40;67.70
54938;DHT22;52756;52.826;6.214;2022-12-18T12:44:24;-0.40;67.70
54938;DHT22;52756;52.826;6.214;2022-12-18T12:46:52;-0.30;67.60
54938;DHT22;52756;52.826;6.214;2022-12-18T12:49:21;-0.30;67.60
54938;DHT22;52756;52.826;6.214;2022-12-18T12:52:31;-0.30;67.70
54938;DHT22;52756;52.826;6.214;2022-12-18T12:54:49;-0.30;67.50
54938;DHT22;52756;52.826;6.214;2022-12-18T12:57:20;-0.30;67.40
54938;DHT22;52756;52.826;6.214;2022-12-18T13:04:57;-0.20;67.00
54938;DHT22;52756;52.826;6.214;2022-12-18T13:25:49;-0.10;67.10
54938;DHT22;52756;52.826;6.214;2022-12-18T13:31:00;0.00;67.00
54938;DHT22;52756;52.826;6.214;2022-12-18T13:38:43;0.00;67.00
54938;DHT22;52756;52.826;6.214;2022-12-18T13:46:28;0.10;66.70
54938;DHT22;52756;52.826;6.214;2022-12-18T13:49:05;0.00;67.10
54938;DHT22;52756;52.826;6.214;2022-12-18T13:51:33;0.10;66.80
54938;DHT22;52756;52.826;6.214;2022-12-18T13:54:13;0.10;67.10
54938;DHT22;52756;52.826;6.214;2022-12-18T13:56:45;0.10;66.80
54938;DHT22;52756;52.826;6.214;2022-12-18T13:59:16;0.10;66.80
54938;DHT22;52756;52.826;6.214;2022-12-18T14:01:53;0.20;66.80
54938;DHT22;52756;52.826;6.214;2022-12-18T14:06:52;0.20;66.60
54938;DHT22;52756;52.826;6.214;2022-12-18T14:09:25;0.20;66.50
54938;DHT22;52756;52.826;6.214;2022-12-18T14:11:52;0.20;66.40
54938;DHT22;52756;52.826;6.214;2022-12-18T14:14:41;0.20;66.50
54938;DHT22;52756;52.826;6.214;2022-12-18T14:17:11;0.20;66.30
54938;DHT22;52756;52.826;6.214;2022-12-18T14:19:40;0.20;66.10
54938;DHT22;52756;52.826;6.214;2022-12-18T14:22:19;0.30;65.80
54938;DHT22;52756;52.826;6.214;2022-12-18T14:24:45;0.30;65.60
54938;DHT22;52756;52.826;6.214;2022-12-18T14:27:36;0.30;65.40
54938;DHT22;52756;52.826;6.214;2022-12-18T14:29:59;0.30;65.30
54938;DHT22;52756;52.826;6.214;2022-12-18T14:32:24;0.30;65.30
54938;DHT22;52756;52.826;6.214;2022-12-18T14:34:52;0.30;65.10
54938;DHT22;52756;52.826;6.214;2022-12-18T14:37:24;0.30;65.10
54938;DHT22;52756;52.826;6.214;2022-12-18T14:40:02;0.30;64.90
54938;DHT22;52756;52.826;6.214;2022-12-18T14:42:28;0.30;64.80
54938;DHT22;52756;52.826;6.214;2022-12-18T14:45:35;0.30;64.80
54938;DHT22;52756;52.826;6.214;2022-12-18T14:53:47;0.30;64.70
54938;DHT22;52756;52.826;6.214;2022-12-18T14:56:17;0.30;64.70
54938;DHT22;52756;52.826;6.214;2022-12-18T14:59:01;0.30;64.80
54938;DHT22;52756;52.826;6.214;2022-12-18T15:01:36;0.20;64.70
54938;DHT22;52756;52.826;6.214;2022-12-18T15:04:03;0.20;65.00
54938;DHT22;52756;52.826;6.214;2022-12-18T15:06:31;0.20;64.90
54938;DHT22;52756;52.826;6.214;2022-12-18T15:09:00;0.20;65.00
54938;DHT22;52756;52.826;6.214;2022-12-18T15:11:33;0.20;64.90
54938;DHT22;52756;52.826;6.214;2022-12-18T15:14:21;0.20;64.80
54938;DHT22;52756;52.826;6.214;2022-12-18T15:16:53;0.20;64.90
54938;DHT22;52756;52.826;6.214;2022-12-18T15:19:21;0.20;64.90
54938;DHT22;52756;52.826;6.214;2022-12-18T15:21:47;0.20;64.90
54938;DHT22;52756;52.826;6.214;2022-12-18T15:24:24;0.20;64.70
54938;DHT22;52756;52.826;6.214;2022-12-18T15:26:51;0.10;64.70
54938;DHT22;52756;52.826;6.214;2022-12-18T15:29:22;0.10;64.90
54938;DHT22;52756;52.826;6.214;2022-12-18T15:32:04;0.20;65.00
54938;DHT22;52756;52.826;6.214;2022-12-18T15:34:31;0.20;65.30
54938;DHT22;52756;52.826;6.214;2022-12-18T15:36:57;0.10;64.80
54938;DHT22;52756;52.826;6.214;2022-12-18T15:39:24;0.10;65.00
54938;DHT22;52756;52.826;6.214;2022-12-18T15:41:50;0.10;65.00
54938;DHT22;52756;52.826;6.214;2022-12-18T15:44:34;0.10;65.10
54938;DHT22;52756;52.826;6.214;2022-12-18T15:47:00;0.20;65.20
54938;DHT22;52756;52.826;6.214;2022-12-18T15:49:25;0.10;65.20
54938;DHT22;52756;52.826;6.214;2022-12-18T15:51:56;0.20;65.20
54938;DHT22;52756;52.826;6.214;2022-12-18T15:54:22;0.10;65.10
54938;DHT22;52756;52.826;6.214;2022-12-18T15:57:10;0.10;65.10
54938;DHT22;52756;52.826;6.214;2022-12-18T15:59:52;0.20;65.30
54938;DHT22;52756;52.826;6.214;2022-12-18T16:02:19;0.10;65.30
54938;DHT22;52756;52.826;6.214;2022-12-18T16:04:45;0.20;65.40
54938;DHT22;52756;52.826;6.214;2022-12-18T16:07:13;0.20;65.40
54938;DHT22;52756;52.826;6.214;2022-12-18T16:09:39;0.10;65.40
54938;DHT22;52756;52.826;6.214;2022-12-18T16:12:06;0.20;65.40
54938;DHT22;52756;52.826;6.214;2022-12-18T16:14:32;0.20;65.40
54938;DHT22;52756;52.826;6.214;2022-12-18T16:17:00;0.20;65.40
54938;DHT22;52756;52.826;6.214;2022-12-18T16:19:28;0.20;65.40
54938;DHT22;52756;52.826;6.214;2022-12-18T16:21:56;0.20;65.60
54938;DHT22;52756;52.826;6.214;2022-12-18T16:24:24;0.20;65.70
54938;DHT22;52756;52.826;6.214;2022-12-18T16:26:50;0.20;65.60
54938;DHT22;52756;52.826;6.214;2022-12-18T16:29:17;0.20;65.60
54938;DHT22;52756;52.826;6.214;2022-12-18T16:31:43;0.20;65.60
54938;DHT22;52756;52.826;6.214;2022-12-18T16:34:20;0.20;65.80
54938;DHT22;52756;52.826;6.214;2022-12-18T16:36:53;0.20;65.80
54938;DHT22;52756;52.826;6.214;2022-12-18T16:39:19;0.70;66.40
54938;DHT22;52756;52.826;6.214;2022-12-18T16:42:06;0.80;66.50
54938;DHT22;52756;52.826;6.214;2022-12-18T16:44:47;0.20;66.30
54938;DHT22;52756;52.826;6.214;2022-12-18T16:47:13;0.50;66.60
54938;DHT22;52756;52.826;6.214;2022-12-18T16:49:39;0.20;66.50
54938;DHT22;52756;52.826;6.214;2022-12-18T16:52:09;1.00;66.90
54938;DHT22;52756;52.826;6.214;2022-12-18T16:54:35;0.20;66.60
54938;DHT22;52756;52.826;6.214;2022-12-18T16:57:01;0.20;66.70
54938;DHT22;52756;52.826;6.214;2022-12-18T16:59:27;0.20;66.70
54938;DHT22;52756;52.826;6.214;2022-12-18T17:01:54;0.30;66.80
54938;DHT22;52756;52.826;6.214;2022-12-18T17:04:20;0.30;66.80
54938;DHT22;52756;52.826;6.214;2022-12-18T17:06:46;0.20;66.70
54938;DHT22;52756;52.826;6.214;2022-12-18T17:09:17;0.20;66.80
54938;DHT22;52756;52.826;6.214;2022-12-18T17:11:46;0.20;66.90
54938;DHT22;52756;52.826;6.214;2022-12-18T17:14:14;0.20;67.00
54938;DHT22;52756;52.826;6.214;2022-12-18T17:16:40;0.30;67.00
54938;DHT22;52756;52.826;6.214;2022-12-18T17:19:06;0.20;67.00
54938;DHT22;52756;52.826;6.214;2022-12-18T17:21:32;0.30;67.10
54938;DHT22;52756;52.826;6.214;2022-12-18T17:24:01;0.30;67.00
54938;DHT22;52756;52.826;6.214;2022-12-18T17:26:27;0.30;67.10
54938;DHT22;52756;52.826;6.214;2022-12-18T17:28:56;0.20;67.00
54938;DHT22;52756;52.826;6.214;2022-12-18T17:31:24;0.30;67.10
54938;DHT22;52756;52.826;6.214;2022-12-18T17:33:50;0.30;67.00
54938;DHT22;52756;52.826;6.214;2022-12-18T17:36:17;0.30;67.10
54938;DHT22;52756;52.826;6.214;2022-12-18T17:38:48;0.30;67.10
54938;DHT22;52756;52.826;6.214;2022-12-18T17:41:14;0.30;67.00
54938;DHT22;52756;52.826;6.214;2022-12-18T17:43:40;0.30;67.00